createdAt,value
2018-08-22T00:01:23.232Z,8.10
2018-08-22T00:03:50.509Z,8.63
2018-08-22T00:06:17.830Z,8.20
2018-08-22T00:08:45.303Z,8.23
2018-08-22T00:11:13.681Z,7.90
2018-08-22T00:13:41.788Z,7.93
2018-08-22T00:16:09.075Z,7.37
2018-08-22T00:18:36.356Z,7.83
2018-08-22T00:21:03.805Z,7.87
2018-08-22T00:23:31.094Z,8.00
2018-08-22T00:25:58.380Z,8.23
2018-08-22T00:28:25.703Z,7.37
2018-08-22T00:30:52.975Z,7.10
2018-08-22T00:33:20.255Z,7.37
2018-08-22T00:35:47.557Z,7.83
2018-08-22T00:38:14.854Z,7.33
2018-08-22T00:40:42.181Z,7.70
2018-08-22T00:43:09.470Z,7.37
2018-08-22T00:45:36.759Z,8.00
2018-08-22T00:48:04.282Z,8.50
2018-08-22T00:50:31.614Z,7.77
2018-08-22T00:52:58.889Z,7.50
2018-08-22T00:55:26.163Z,7.40
2018-08-22T00:57:53.439Z,7.37
2018-08-22T01:00:20.735Z,8.00
2018-08-22T01:02:48.043Z,7.90
2018-08-22T01:05:15.307Z,7.30
2018-08-22T01:07:42.649Z,7.07
2018-08-22T01:10:09.958Z,7.80
2018-08-22T01:12:37.514Z,6.80
2018-08-22T01:15:04.886Z,7.33
2018-08-22T01:17:32.182Z,6.53
2018-08-22T01:19:59.478Z,6.33
2018-08-22T01:22:26.775Z,6.70
2018-08-22T01:24:54.100Z,7.30
2018-08-22T01:27:22.490Z,7.30
2018-08-22T01:29:51.864Z,7.17
2018-08-22T01:32:19.460Z,6.97
2018-08-22T01:34:46.750Z,6.93
2018-08-22T01:37:14.042Z,7.17
2018-08-22T01:39:41.313Z,7.37
2018-08-22T01:42:08.602Z,7.00
2018-08-22T01:44:35.928Z,6.73
2018-08-22T01:47:03.264Z,6.80
2018-08-22T01:49:30.598Z,6.77
2018-08-22T01:51:57.875Z,7.03
2018-08-22T01:54:25.161Z,6.87
2018-08-22T01:56:52.457Z,6.50
2018-08-22T01:59:19.758Z,7.00
2018-08-22T02:01:47.059Z,7.50
2018-08-22T02:06:48.504Z,7.20
2018-08-22T02:09:15.809Z,8.07
2018-08-22T02:11:43.168Z,8.47
2018-08-22T02:14:11.123Z,7.30
2018-08-22T02:16:38.436Z,7.10
2018-08-22T02:19:06.230Z,7.17
2018-08-22T02:21:34.003Z,6.73
2018-08-22T02:24:01.278Z,7.60
2018-08-22T02:26:28.613Z,7.20
2018-08-22T02:28:55.919Z,8.17
2018-08-22T02:31:23.214Z,7.33
2018-08-22T02:33:50.659Z,6.63
2018-08-22T02:36:17.972Z,7.30
2018-08-22T02:38:45.290Z,7.20
2018-08-22T02:41:12.611Z,8.10
2018-08-22T02:43:39.931Z,7.30
2018-08-22T02:46:07.246Z,8.07
2018-08-22T02:48:40.251Z,7.20
2018-08-22T02:51:07.790Z,7.67
2018-08-22T02:53:35.121Z,7.17
2018-08-22T02:56:02.442Z,6.73
2018-08-22T02:58:29.744Z,7.30
2018-08-22T03:00:57.047Z,7.20
2018-08-22T03:03:24.342Z,7.60
2018-08-22T03:05:51.913Z,8.13
2018-08-22T03:08:19.223Z,8.47
2018-08-22T03:10:46.548Z,8.50
2018-08-22T03:13:13.866Z,7.47
2018-08-22T03:15:41.159Z,8.07
2018-08-22T03:18:08.443Z,7.57
2018-08-22T03:20:35.752Z,7.43
2018-08-22T03:23:03.039Z,7.20
2018-08-22T03:25:30.331Z,8.43
2018-08-22T03:27:57.797Z,8.53
2018-08-22T03:30:25.104Z,8.30
2018-08-22T03:32:52.412Z,7.77
2018-08-22T03:35:19.731Z,8.17
2018-08-22T03:37:47.019Z,7.53
2018-08-22T03:40:14.311Z,8.27
2018-08-22T03:42:41.621Z,7.53
2018-08-22T03:45:08.929Z,7.17
2018-08-22T03:47:36.997Z,7.00
2018-08-22T03:50:04.697Z,7.73
2018-08-22T03:55:06.267Z,7.67
2018-08-22T03:57:33.574Z,8.20
2018-08-22T04:00:00.860Z,8.10
2018-08-22T04:02:28.194Z,8.13
2018-08-22T04:04:55.508Z,7.67
2018-08-22T04:07:22.891Z,7.43
2018-08-22T04:09:50.298Z,8.03
2018-08-22T04:12:17.628Z,7.73
2018-08-22T04:14:45.092Z,8.10
2018-08-22T04:17:12.659Z,7.37
2018-08-22T04:22:14.011Z,7.17
2018-08-22T04:24:41.332Z,7.40
2018-08-22T04:27:08.613Z,7.40
2018-08-22T04:29:35.923Z,7.53
2018-08-22T04:32:03.359Z,7.83
2018-08-22T04:34:30.704Z,7.77
2018-08-22T04:36:58.015Z,8.33
2018-08-22T04:39:25.348Z,7.70
2018-08-22T04:41:52.648Z,8.17
2018-08-22T04:44:19.945Z,9.00
2018-08-22T04:46:47.471Z,8.60
2018-08-22T04:49:14.785Z,8.10
2018-08-22T04:51:42.092Z,8.10
2018-08-22T04:54:09.651Z,9.67
2018-08-22T04:56:36.978Z,7.37
2018-08-22T04:59:04.331Z,8.03
2018-08-22T05:01:31.657Z,10.07
2018-08-22T05:03:58.957Z,8.97
2018-08-22T05:06:26.268Z,8.80
2018-08-22T05:08:53.561Z,10.43
2018-08-22T05:11:20.901Z,8.30
2018-08-22T05:13:48.373Z,8.43
2018-08-22T05:16:15.659Z,8.30
2018-08-22T05:18:42.939Z,7.87
2018-08-22T05:21:10.248Z,7.87
2018-08-22T05:23:37.587Z,7.57
2018-08-22T05:26:04.888Z,7.37
2018-08-22T05:28:33.020Z,8.27
2018-08-22T05:31:00.327Z,7.80
2018-08-22T05:33:27.654Z,8.60
2018-08-22T05:35:55.035Z,8.53
2018-08-22T05:38:22.323Z,8.30
2018-08-22T05:40:49.653Z,8.23
2018-08-22T05:43:16.963Z,8.80
2018-08-22T05:45:44.266Z,8.00
2018-08-22T05:48:11.584Z,9.80
2018-08-22T05:50:38.943Z,9.20
2018-08-22T05:53:06.238Z,9.10
2018-08-22T05:55:33.572Z,8.73
2018-08-22T05:58:01.502Z,8.97
2018-08-22T06:00:28.847Z,9.60
2018-08-22T06:02:56.155Z,14.37
2018-08-22T06:05:23.471Z,14.93
2018-08-22T06:07:51.197Z,16.43
2018-08-22T06:10:18.650Z,19.53
2018-08-22T06:12:45.970Z,15.37
2018-08-22T06:15:13.275Z,16.30
2018-08-22T06:17:40.596Z,17.30
2018-08-22T06:20:07.990Z,15.33
2018-08-22T06:22:35.324Z,15.97
2018-08-22T06:25:02.775Z,16.93
2018-08-22T06:27:30.103Z,14.20
2018-08-22T06:29:57.645Z,15.30
2018-08-22T06:32:25.244Z,14.77
2018-08-22T06:34:52.812Z,15.83
2018-08-22T06:37:20.123Z,14.80
2018-08-22T06:39:47.435Z,14.53
2018-08-22T06:42:14.738Z,16.87
2018-08-22T06:44:42.067Z,14.17
2018-08-22T06:47:09.372Z,16.47
2018-08-22T06:49:36.678Z,14.73
2018-08-22T06:52:04.308Z,15.30
2018-08-22T06:54:31.631Z,14.73
2018-08-22T06:56:58.993Z,14.33
2018-08-22T06:59:26.299Z,16.10
2018-08-22T07:01:53.644Z,14.43
2018-08-22T07:04:20.929Z,14.60
2018-08-22T07:06:48.246Z,14.90
2018-08-22T07:09:15.623Z,14.77
2018-08-22T07:11:42.935Z,14.70
2018-08-22T07:14:10.327Z,14.00
2018-08-22T07:16:37.748Z,13.47
2018-08-22T07:19:05.198Z,14.67
2018-08-22T07:21:32.529Z,13.60
2018-08-22T07:23:59.840Z,14.30
2018-08-22T07:26:27.214Z,14.67
2018-08-22T07:28:54.539Z,14.60
2018-08-22T07:31:21.852Z,13.73
2018-08-22T07:33:49.251Z,13.87
2018-08-22T07:36:16.596Z,14.50
2018-08-22T07:38:43.915Z,13.83
2018-08-22T07:41:11.229Z,13.90
2018-08-22T07:43:38.613Z,14.97
2018-08-22T07:46:05.971Z,14.63
2018-08-22T07:48:33.305Z,16.73
2018-08-22T07:51:00.601Z,16.20
2018-08-22T07:53:27.987Z,16.53
2018-08-22T07:55:55.261Z,15.60
2018-08-22T07:58:22.571Z,16.53
2018-08-22T08:00:49.876Z,18.73
2018-08-22T08:03:17.180Z,17.00
2018-08-22T08:05:44.507Z,16.33
2018-08-22T08:08:11.806Z,17.00
2018-08-22T08:10:39.097Z,17.50
2018-08-22T08:13:13.557Z,16.40
2018-08-22T08:15:41.520Z,16.33
2018-08-22T08:18:09.081Z,18.53
2018-08-22T08:20:36.397Z,16.57
2018-08-22T08:23:03.890Z,15.43
2018-08-22T08:25:31.250Z,16.15
2018-08-22T08:27:58.555Z,16.43
2018-08-22T08:30:26.059Z,18.53
2018-08-22T08:32:53.392Z,19.03
2018-08-22T08:35:20.717Z,16.60
2018-08-22T08:37:48.028Z,16.10
2018-08-22T08:40:15.371Z,15.97
2018-08-22T08:42:42.750Z,15.87
2018-08-22T08:45:10.900Z,21.20
2018-08-22T08:47:38.225Z,19.40
2018-08-22T08:50:05.609Z,16.30
2018-08-22T08:52:33.775Z,17.67
2018-08-22T08:55:01.091Z,16.17
2018-08-22T08:57:28.516Z,16.87
2018-08-22T08:59:55.960Z,16.10
2018-08-22T09:02:23.624Z,16.82
2018-08-22T09:04:50.915Z,18.17
2018-08-22T09:07:18.556Z,17.48
2018-08-22T09:09:45.903Z,14.73
2018-08-22T09:12:13.214Z,17.98
2018-08-22T09:14:40.783Z,16.15
2018-08-22T09:17:08.652Z,16.95
2018-08-22T09:19:35.997Z,14.53
2018-08-22T09:22:03.671Z,15.32
2018-08-22T09:24:30.981Z,15.70
2018-08-22T09:26:58.287Z,17.48
2018-08-22T09:29:26.087Z,17.57
2018-08-22T09:31:53.399Z,16.52
2018-08-22T09:34:20.717Z,15.88
2018-08-22T09:36:48.066Z,17.10
2018-08-22T09:39:15.420Z,16.80
2018-08-22T09:41:43.019Z,16.73
2018-08-22T09:44:10.320Z,19.20
2018-08-22T09:46:38.472Z,19.15
2018-08-22T09:49:05.815Z,19.17
2018-08-22T09:51:33.161Z,20.30
2018-08-22T09:54:00.468Z,18.07
2018-08-22T09:56:28.057Z,17.77
2018-08-22T09:58:55.380Z,18.25
2018-08-22T10:01:27.260Z,19.37
2018-08-22T10:03:55.971Z,20.12
2018-08-22T10:06:29.982Z,21.10
2018-08-22T10:08:59.388Z,18.30
2018-08-22T10:11:26.713Z,18.02
2018-08-22T10:13:55.017Z,22.52
2018-08-22T10:16:22.468Z,21.60
2018-08-22T10:18:50.363Z,23.30
2018-08-22T10:21:17.666Z,23.02
2018-08-22T10:23:44.987Z,23.83
2018-08-22T10:26:12.295Z,23.75
2018-08-22T10:28:39.940Z,25.72
2018-08-22T10:31:07.254Z,25.80
2018-08-22T10:33:34.561Z,24.52
2018-08-22T10:36:01.884Z,24.85
2018-08-22T10:38:29.205Z,21.87
2018-08-22T10:40:56.821Z,21.45
2018-08-22T10:43:24.283Z,21.23
2018-08-22T10:45:52.044Z,20.30
2018-08-22T10:48:19.370Z,21.15
2018-08-22T10:50:47.255Z,20.70
2018-08-22T10:53:14.823Z,20.35
2018-08-22T10:55:42.285Z,18.77
2018-08-22T10:58:09.575Z,17.32
2018-08-22T11:00:36.887Z,20.25
2018-08-22T11:03:04.544Z,21.60
2018-08-22T11:05:31.836Z,21.20
2018-08-22T11:07:59.195Z,21.80
2018-08-22T11:10:26.483Z,18.82
2018-08-22T11:12:53.828Z,25.48
2018-08-22T11:15:21.115Z,22.87
2018-08-22T11:17:48.495Z,20.23
2018-08-22T11:20:15.825Z,21.97
2018-08-22T11:22:54.681Z,18.62
2018-08-22T11:25:33.731Z,20.02
2018-08-22T11:28:12.668Z,19.02
2018-08-22T11:30:51.516Z,19.90
2018-08-22T11:33:30.456Z,18.73
2018-08-22T11:35:56.816Z,18.82
2018-08-22T11:38:24.180Z,17.67
2018-08-22T11:40:51.491Z,17.23
2018-08-22T11:43:19.055Z,18.98
2018-08-22T11:45:46.396Z,16.65
2018-08-22T11:48:13.704Z,17.57
2018-08-22T11:50:41.078Z,18.65
2018-08-22T11:53:08.380Z,16.97
2018-08-22T11:55:35.672Z,17.52
2018-08-22T11:58:02.992Z,17.98
2018-08-22T12:00:30.528Z,17.55
2018-08-22T12:02:59.507Z,17.77
2018-08-22T12:05:26.832Z,17.52
2018-08-22T12:07:54.153Z,17.37
2018-08-22T12:10:25.262Z,18.02
2018-08-22T12:12:52.559Z,17.15
2018-08-22T12:15:19.890Z,17.10
2018-08-22T12:17:47.196Z,20.82
2018-08-22T12:20:14.511Z,17.07
2018-08-22T12:22:41.819Z,18.20
2018-08-22T12:25:09.143Z,18.40
2018-08-22T12:27:36.463Z,17.32
2018-08-22T12:30:03.843Z,17.27
2018-08-22T12:32:31.196Z,17.17
2018-08-22T12:34:58.515Z,19.62
2018-08-22T12:37:25.888Z,21.90
2018-08-22T12:39:53.188Z,21.10
2018-08-22T12:42:20.507Z,22.20
2018-08-22T12:44:47.834Z,22.02
2018-08-22T12:47:15.159Z,23.75
2018-08-22T12:49:42.498Z,25.77
2018-08-22T12:52:09.845Z,23.22
2018-08-22T12:54:37.170Z,22.02
2018-08-22T12:57:04.555Z,24.80
2018-08-22T12:59:31.874Z,22.98
2018-08-22T13:01:59.190Z,23.57
2018-08-22T13:04:26.487Z,20.97
2018-08-22T13:06:53.789Z,21.27
2018-08-22T13:09:21.125Z,20.90
2018-08-22T13:11:48.453Z,17.20
2018-08-22T13:14:15.784Z,19.07
2018-08-22T13:16:43.063Z,18.90
2018-08-22T13:19:10.374Z,18.20
2018-08-22T13:21:37.678Z,19.15
2018-08-22T13:24:05.013Z,20.95
2018-08-22T13:26:32.341Z,22.50
2018-08-22T13:28:59.661Z,18.90
2018-08-22T13:31:26.988Z,19.12
2018-08-22T13:33:54.285Z,17.60
2018-08-22T13:36:21.660Z,15.90
2018-08-22T13:38:48.883Z,20.10
2018-08-22T13:41:16.193Z,18.52
2018-08-22T13:43:43.484Z,17.60
2018-08-22T13:46:11.491Z,14.83
2018-08-22T13:48:38.779Z,16.20
2018-08-22T13:51:06.277Z,12.25
2018-08-22T13:53:33.585Z,14.00
2018-08-22T13:56:00.922Z,13.98
2018-08-22T13:58:28.228Z,15.90
2018-08-22T14:00:55.562Z,15.10
2018-08-22T14:03:22.864Z,16.23
2018-08-22T14:05:50.172Z,15.53
2018-08-22T14:08:17.473Z,13.03
2018-08-22T14:10:44.780Z,16.17
2018-08-22T14:13:12.095Z,16.00
2018-08-22T14:15:39.386Z,19.05
2018-08-22T14:18:06.904Z,15.03
2018-08-22T14:20:34.199Z,17.00
2018-08-22T14:23:01.527Z,13.90
2018-08-22T14:25:28.846Z,15.10
2018-08-22T14:27:56.155Z,18.07
2018-08-22T14:30:23.472Z,15.85
2018-08-22T14:32:50.746Z,15.08
2018-08-22T14:35:19.144Z,16.05
2018-08-22T14:37:46.444Z,15.08
2018-08-22T14:40:13.766Z,15.43
2018-08-22T14:42:41.082Z,11.38
2018-08-22T14:45:08.588Z,9.53
2018-08-22T14:47:35.951Z,11.08
2018-08-22T14:50:03.320Z,9.85
2018-08-22T14:52:31.015Z,11.40
2018-08-22T14:54:58.331Z,10.05
2018-08-22T14:57:25.868Z,10.48
2018-08-22T14:59:53.159Z,11.20
2018-08-22T15:02:20.494Z,12.73
2018-08-22T15:04:47.824Z,13.25
2018-08-22T15:07:15.208Z,13.88
2018-08-22T15:09:42.523Z,13.30
2018-08-22T15:12:09.832Z,12.55
2018-08-22T15:14:37.128Z,12.50
2018-08-22T15:17:04.485Z,13.22
2018-08-22T15:19:31.783Z,13.30
2018-08-22T15:22:05.994Z,13.90
2018-08-22T15:24:33.327Z,12.13
2018-08-22T15:27:01.146Z,15.08
2018-08-22T15:29:28.556Z,13.48
2018-08-22T15:31:55.843Z,16.25
2018-08-22T15:34:28.575Z,13.65
2018-08-22T15:36:55.873Z,13.45
2018-08-22T15:39:23.165Z,13.32
2018-08-22T15:41:50.718Z,14.80
2018-08-22T15:44:17.967Z,13.60
2018-08-22T15:46:45.280Z,14.30
2018-08-22T15:49:12.633Z,16.17
2018-08-22T15:51:39.919Z,13.88
2018-08-22T15:54:09.454Z,16.12
2018-08-22T15:56:38.456Z,14.95
2018-08-22T15:59:05.912Z,15.88
2018-08-22T16:01:33.262Z,15.72
2018-08-22T16:04:00.572Z,13.15
2018-08-22T16:06:27.861Z,14.58
2018-08-22T16:08:55.326Z,15.95
2018-08-22T16:11:23.208Z,15.68
2018-08-22T16:13:50.627Z,15.95
2018-08-22T16:16:17.964Z,15.18
2018-08-22T16:18:45.240Z,15.70
2018-08-22T16:21:12.546Z,16.20
2018-08-22T16:23:39.883Z,14.83
2018-08-22T16:26:07.171Z,16.13
2018-08-22T16:28:48.816Z,15.00
2018-08-22T16:31:16.444Z,19.85
2018-08-22T16:33:43.687Z,12.78
2018-08-22T16:36:15.644Z,14.77
2018-08-22T16:38:49.618Z,14.73
2018-08-22T16:41:16.992Z,14.70
2018-08-22T16:43:45.121Z,13.40
2018-08-22T16:46:14.954Z,13.47
2018-08-22T16:48:43.655Z,14.43
2018-08-22T16:51:12.132Z,13.20
2018-08-22T16:53:39.472Z,13.33
2018-08-22T16:56:06.838Z,15.50
2018-08-22T16:58:34.208Z,13.20
2018-08-22T17:01:01.669Z,14.93
2018-08-22T17:03:28.991Z,12.77
2018-08-22T17:06:02.489Z,18.20
2018-08-22T17:08:29.923Z,12.80
2018-08-22T17:10:58.645Z,15.37
2018-08-22T17:13:36.644Z,17.90
2018-08-22T17:16:04.087Z,14.77
2018-08-22T17:18:31.509Z,13.37
2018-08-22T17:20:58.868Z,14.00
2018-08-22T17:23:26.271Z,15.17
2018-08-22T17:25:53.559Z,15.97
2018-08-22T17:28:26.635Z,15.20
2018-08-22T17:30:53.913Z,14.23
2018-08-22T17:33:23.896Z,14.67
2018-08-22T17:35:55.964Z,13.10
2018-08-22T17:38:23.274Z,15.13
2018-08-22T17:40:50.605Z,15.03
2018-08-22T17:43:18.035Z,15.90
2018-08-22T17:45:52.020Z,14.63
2018-08-22T17:48:20.880Z,15.90
2018-08-22T17:50:48.444Z,14.57
2018-08-22T17:53:15.739Z,16.20
2018-08-22T17:55:43.003Z,14.57
2018-08-22T17:58:10.434Z,14.77
2018-08-22T18:00:38.380Z,12.63
2018-08-22T18:03:05.691Z,17.77
2018-08-22T18:05:34.219Z,13.43
2018-08-22T18:08:04.503Z,16.07
2018-08-22T18:10:33.947Z,15.50
2018-08-22T18:13:06.947Z,14.00
2018-08-22T18:15:34.233Z,13.80
2018-08-22T18:18:01.504Z,15.07
2018-08-22T18:20:29.051Z,14.27
2018-08-22T18:22:56.330Z,13.97
2018-08-22T18:25:23.639Z,15.17
2018-08-22T18:27:55.879Z,13.60
2018-08-22T18:30:23.185Z,15.70
2018-08-22T18:32:50.468Z,15.67
2018-08-22T18:35:17.890Z,15.47
2018-08-22T18:37:45.174Z,14.87
2018-08-22T18:40:34.107Z,14.17
2018-08-22T18:43:03.724Z,17.03
2018-08-22T18:45:31.010Z,15.43
2018-08-22T18:48:01.507Z,15.60
2018-08-22T18:50:28.859Z,14.60
2018-08-22T18:52:58.288Z,16.33
2018-08-22T18:55:26.900Z,16.17
2018-08-22T18:57:54.954Z,15.83
2018-08-22T19:00:22.351Z,17.30
2018-08-22T19:02:51.199Z,17.27
2018-08-22T19:05:36.051Z,15.40
2018-08-22T19:08:06.980Z,16.20
2018-08-22T19:10:35.488Z,17.30
2018-08-22T19:13:15.437Z,15.87
2018-08-22T19:15:49.279Z,18.13
2018-08-22T19:18:16.912Z,16.90
2018-08-22T19:20:44.220Z,20.27
2018-08-22T19:23:11.512Z,16.23
2018-08-22T19:25:39.092Z,17.83
2018-08-22T19:28:06.420Z,16.30
2018-08-22T19:30:34.767Z,17.37
2018-08-22T19:33:02.172Z,16.00
2018-08-22T19:35:29.483Z,16.93
2018-08-22T19:38:03.427Z,18.00
2018-08-22T19:40:30.762Z,16.40
2018-08-22T19:42:58.693Z,17.23
2018-08-22T19:45:26.015Z,18.57
2018-08-22T19:47:53.383Z,16.40
2018-08-22T19:50:20.892Z,16.77
2018-08-22T19:52:48.317Z,19.50
2018-08-22T19:55:15.615Z,15.20
2018-08-22T19:57:43.646Z,15.47
2018-08-22T20:00:11.926Z,15.77
2018-08-22T20:02:39.206Z,15.27
2018-08-22T20:05:07.961Z,17.13
2018-08-22T20:07:35.469Z,15.40
2018-08-22T20:10:02.883Z,15.97
2018-08-22T20:12:45.471Z,15.00
2018-08-22T20:15:12.823Z,16.33
2018-08-22T20:17:40.359Z,16.67
2018-08-22T20:20:09.035Z,15.03
2018-08-22T20:22:42.657Z,14.37
2018-08-22T20:25:10.451Z,17.27
2018-08-22T20:27:38.069Z,17.37
2018-08-22T20:30:12.492Z,15.63
2018-08-22T20:32:56.777Z,16.40
2018-08-22T20:35:32.571Z,15.23
2018-08-22T20:38:01.106Z,15.07
2018-08-22T20:40:29.313Z,16.07
2018-08-22T20:42:57.143Z,16.37
2018-08-22T20:45:30.064Z,15.17
2018-08-22T20:48:03.731Z,16.10
2018-08-22T20:50:31.561Z,16.37
2018-08-22T20:53:01.222Z,16.13
2018-08-22T20:55:28.789Z,15.97
2018-08-22T20:57:56.400Z,16.70
2018-08-22T21:00:24.567Z,16.83
2018-08-22T21:02:53.139Z,18.37
2018-08-22T21:05:20.854Z,17.50
2018-08-22T21:07:48.153Z,15.97
2018-08-22T21:10:15.810Z,16.13
2018-08-22T21:12:43.126Z,16.93
2018-08-22T21:15:10.425Z,16.57
2018-08-22T21:17:37.720Z,18.00
2018-08-22T21:20:26.182Z,20.50
2018-08-22T21:22:55.125Z,18.60
2018-08-22T21:25:22.451Z,18.20
2018-08-22T21:27:50.352Z,18.47
2018-08-22T21:30:17.814Z,17.50
2018-08-22T21:32:46.083Z,18.53
2018-08-22T21:35:22.867Z,18.93
2018-08-22T21:37:50.224Z,19.93
2018-08-22T21:40:17.563Z,18.03
2018-08-22T21:42:44.886Z,20.03
2018-08-22T21:45:12.199Z,20.77
2018-08-22T21:47:39.519Z,19.20
2018-08-22T21:50:07.027Z,19.83
2018-08-22T21:53:05.547Z,20.10
2018-08-22T21:55:49.433Z,19.67
2018-08-22T21:58:16.775Z,19.70
2018-08-22T22:00:44.119Z,19.37
2018-08-22T22:03:12.392Z,19.57
2018-08-22T22:05:54.358Z,21.67
2018-08-22T22:08:22.043Z,20.57
2018-08-22T22:10:57.639Z,19.03
2018-08-22T22:13:25.055Z,22.87
2018-08-22T22:15:52.663Z,22.53
2018-08-22T22:18:20.017Z,19.57
2018-08-22T22:20:48.951Z,21.03
2018-08-22T22:23:16.292Z,20.83
2018-08-22T22:25:43.654Z,22.13
2018-08-22T22:28:11.003Z,24.17
2018-08-22T22:30:38.375Z,18.17
2018-08-22T22:33:05.692Z,19.53
2018-08-22T22:35:35.816Z,19.47
2018-08-22T22:38:07.113Z,17.00
2018-08-22T22:40:34.651Z,20.77
2018-08-22T22:43:02.109Z,18.90
2018-08-22T22:45:29.568Z,20.03
2018-08-22T22:47:57.249Z,20.77
2018-08-22T22:50:24.543Z,18.93
2018-08-22T22:52:51.928Z,22.13
2018-08-22T22:55:19.267Z,18.27
2018-08-22T22:57:46.585Z,19.93
2018-08-22T23:00:15.955Z,20.77
2018-08-22T23:02:44.020Z,19.70
2018-08-22T23:05:11.327Z,21.50
2018-08-22T23:07:42.634Z,21.53
2018-08-22T23:10:12.176Z,20.00
2018-08-22T23:12:40.882Z,21.03
2018-08-22T23:15:09.407Z,18.77
2018-08-22T23:17:37.160Z,20.90
2018-08-22T23:20:23.903Z,20.70
2018-08-22T23:22:51.343Z,19.97
2018-08-22T23:25:18.643Z,22.73
2018-08-22T23:27:45.974Z,20.23
2018-08-22T23:30:18.417Z,22.43
2018-08-22T23:32:45.719Z,22.87
2018-08-22T23:35:24.589Z,26.93
2018-08-22T23:37:55.877Z,21.03
2018-08-22T23:40:24.302Z,20.37
2018-08-22T23:42:52.172Z,19.37
2018-08-22T23:45:19.471Z,18.63
2018-08-22T23:47:46.764Z,21.93
2018-08-22T23:50:14.136Z,22.30
2018-08-22T23:52:47.185Z,20.77
2018-08-22T23:55:14.519Z,20.97
2018-08-22T23:57:41.821Z,22.40
